sensor_id;sensor_type;location;lat;lon;timestamp;P1;durP1;ratioP1;P2;durP2;ratioP2
22752;SDS011;11543;43.144;24.684;2024-02-23T00:01:14;9.20;;;5.80;;
22752;SDS011;11543;43.144;24.684;2024-02-23T00:03:40;7.57;;;5.63;;
22752;SDS011;11543;43.144;24.684;2024-02-23T00:06:06;11.65;;;7.15;;
22752;SDS011;11543;43.144;24.684;2024-02-23T00:08:31;17.67;;;10.00;;
22752;SDS011;11543;43.144;24.684;2024-02-23T00:10:57;15.13;;;10.60;;
22752;SDS011;11543;43.144;24.684;2024-02-23T00:13:22;14.55;;;9.10;;
22752;SDS011;11543;43.144;24.684;2024-02-23T00:15:48;11.25;;;8.32;;
22752;SDS011;11543;43.144;24.684;2024-02-23T00:18:13;10.18;;;7.03;;
22752;SDS011;11543;43.144;24.684;2024-02-23T00:20:41;14.80;;;9.45;;
22752;SDS011;11543;43.144;24.684;2024-02-23T00:23:06;18.33;;;10.30;;
22752;SDS011;11543;43.144;24.684;2024-02-23T00:25:31;6.88;;;4.32;;
22752;SDS011;11543;43.144;24.684;2024-02-23T00:27:57;25.40;;;13.15;;
22752;SDS011;11543;43.144;24.684;2024-02-23T00:30:22;34.17;;;18.08;;
22752;SDS011;11543;43.144;24.684;2024-02-23T00:32:48;32.13;;;15.73;;
22752;SDS011;11543;43.144;24.684;2024-02-23T00:35:13;19.98;;;11.63;;
22752;SDS011;11543;43.144;24.684;2024-02-23T00:37:39;24.67;;;13.75;;
22752;SDS011;11543;43.144;24.684;2024-02-23T00:40:05;27.08;;;14.10;;
22752;SDS011;11543;43.144;24.684;2024-02-23T00:42:31;21.10;;;11.88;;
22752;SDS011;11543;43.144;24.684;2024-02-23T00:44:57;19.77;;;11.38;;
22752;SDS011;11543;43.144;24.684;2024-02-23T00:47:23;23.63;;;12.07;;
22752;SDS011;11543;43.144;24.684;2024-02-23T00:49:48;19.50;;;11.15;;
22752;SDS011;11543;43.144;24.684;2024-02-23T00:52:14;17.58;;;11.18;;
22752;SDS011;11543;43.144;24.684;2024-02-23T00:54:40;14.75;;;9.05;;
22752;SDS011;11543;43.144;24.684;2024-02-23T00:57:05;15.05;;;9.50;;
22752;SDS011;11543;43.144;24.684;2024-02-23T00:59:31;14.07;;;8.65;;
22752;SDS011;11543;43.144;24.684;2024-02-23T01:01:57;12.30;;;7.93;;
22752;SDS011;11543;43.144;24.684;2024-02-23T01:04:22;12.27;;;7.75;;
22752;SDS011;11543;43.144;24.684;2024-02-23T01:06:48;13.93;;;8.85;;
22752;SDS011;11543;43.144;24.684;2024-02-23T01:09:13;16.77;;;8.60;;
22752;SDS011;11543;43.144;24.684;2024-02-23T01:11:41;13.82;;;9.00;;
22752;SDS011;11543;43.144;24.684;2024-02-23T01:14:06;14.43;;;9.38;;
22752;SDS011;11543;43.144;24.684;2024-02-23T01:16:32;15.65;;;9.13;;
22752;SDS011;11543;43.144;24.684;2024-02-23T01:18:57;15.98;;;10.48;;
22752;SDS011;11543;43.144;24.684;2024-02-23T01:21:23;16.27;;;10.25;;
22752;SDS011;11543;43.144;24.684;2024-02-23T01:23:48;13.93;;;9.20;;
22752;SDS011;11543;43.144;24.684;2024-02-23T01:26:14;15.10;;;10.18;;
22752;SDS011;11543;43.144;24.684;2024-02-23T01:28:40;14.15;;;9.98;;
22752;SDS011;11543;43.144;24.684;2024-02-23T01:31:08;15.15;;;9.02;;
22752;SDS011;11543;43.144;24.684;2024-02-23T01:33:36;14.82;;;9.93;;
22752;SDS011;11543;43.144;24.684;2024-02-23T01:36:03;13.93;;;9.20;;
22752;SDS011;11543;43.144;24.684;2024-02-23T01:38:32;13.50;;;8.35;;
22752;SDS011;11543;43.144;24.684;2024-02-23T01:40:58;12.88;;;8.35;;
22752;SDS011;11543;43.144;24.684;2024-02-23T01:43:24;15.02;;;8.27;;
22752;SDS011;11543;43.144;24.684;2024-02-23T01:45:50;10.63;;;7.43;;
22752;SDS011;11543;43.144;24.684;2024-02-23T01:48:16;12.40;;;6.80;;
22752;SDS011;11543;43.144;24.684;2024-02-23T01:50:43;10.32;;;6.80;;
22752;SDS011;11543;43.144;24.684;2024-02-23T01:53:09;8.25;;;6.03;;
22752;SDS011;11543;43.144;24.684;2024-02-23T01:55:37;9.57;;;4.85;;
22752;SDS011;11543;43.144;24.684;2024-02-23T01:58:10;6.03;;;4.32;;
22752;SDS011;11543;43.144;24.684;2024-02-23T02:00:36;6.43;;;4.13;;
22752;SDS011;11543;43.144;24.684;2024-02-23T02:03:02;6.75;;;4.43;;
22752;SDS011;11543;43.144;24.684;2024-02-23T02:05:28;7.55;;;5.15;;
22752;SDS011;11543;43.144;24.684;2024-02-23T02:07:54;11.32;;;6.22;;
22752;SDS011;11543;43.144;24.684;2024-02-23T02:10:24;11.98;;;6.75;;
22752;SDS011;11543;43.144;24.684;2024-02-23T02:12:50;16.02;;;8.82;;
22752;SDS011;11543;43.144;24.684;2024-02-23T02:15:15;11.40;;;7.40;;
22752;SDS011;11543;43.144;24.684;2024-02-23T02:17:41;13.63;;;7.13;;
22752;SDS011;11543;43.144;24.684;2024-02-23T02:20:06;20.10;;;10.40;;
22752;SDS011;11543;43.144;24.684;2024-02-23T02:22:36;23.48;;;11.25;;
22752;SDS011;11543;43.144;24.684;2024-02-23T02:25:02;22.05;;;10.68;;
22752;SDS011;11543;43.144;24.684;2024-02-23T02:27:28;23.42;;;12.73;;
22752;SDS011;11543;43.144;24.684;2024-02-23T02:29:53;23.23;;;12.50;;
22752;SDS011;11543;43.144;24.684;2024-02-23T02:32:19;17.75;;;10.23;;
22752;SDS011;11543;43.144;24.684;2024-02-23T02:34:44;20.27;;;10.85;;
22752;SDS011;11543;43.144;24.684;2024-02-23T02:37:10;20.02;;;11.35;;
22752;SDS011;11543;43.144;24.684;2024-02-23T02:39:35;18.50;;;10.73;;
22752;SDS011;11543;43.144;24.684;2024-02-23T02:42:01;18.77;;;10.88;;
22752;SDS011;11543;43.144;24.684;2024-02-23T02:44:26;19.70;;;11.18;;
22752;SDS011;11543;43.144;24.684;2024-02-23T02:46:55;19.52;;;10.90;;
22752;SDS011;11543;43.144;24.684;2024-02-23T02:49:22;17.75;;;10.68;;
22752;SDS011;11543;43.144;24.684;2024-02-23T02:51:47;19.73;;;12.00;;
22752;SDS011;11543;43.144;24.684;2024-02-23T02:54:13;19.40;;;11.65;;
22752;SDS011;11543;43.144;24.684;2024-02-23T02:56:44;36.83;;;19.27;;
22752;SDS011;11543;43.144;24.684;2024-02-23T02:59:11;36.08;;;17.92;;
22752;SDS011;11543;43.144;24.684;2024-02-23T03:01:37;31.45;;;17.50;;
22752;SDS011;11543;43.144;24.684;2024-02-23T03:04:03;31.98;;;15.95;;
22752;SDS011;11543;43.144;24.684;2024-02-23T03:06:28;25.17;;;14.00;;
22752;SDS011;11543;43.144;24.684;2024-02-23T03:08:54;23.10;;;12.30;;
22752;SDS011;11543;43.144;24.684;2024-02-23T03:11:19;21.65;;;12.65;;
22752;SDS011;11543;43.144;24.684;2024-02-23T03:13:45;18.48;;;11.77;;
22752;SDS011;11543;43.144;24.684;2024-02-23T03:16:17;13.23;;;8.10;;
22752;SDS011;11543;43.144;24.684;2024-02-23T03:18:43;8.85;;;6.20;;
22752;SDS011;11543;43.144;24.684;2024-02-23T03:21:09;13.38;;;7.80;;
22752;SDS011;11543;43.144;24.684;2024-02-23T03:23:35;12.30;;;7.78;;
22752;SDS011;11543;43.144;24.684;2024-02-23T03:26:01;13.43;;;8.40;;
22752;SDS011;11543;43.144;24.684;2024-02-23T03:28:27;22.85;;;11.65;;
22752;SDS011;11543;43.144;24.684;2024-02-23T03:30:53;12.93;;;8.38;;
22752;SDS011;11543;43.144;24.684;2024-02-23T03:33:19;16.50;;;9.48;;
22752;SDS011;11543;43.144;24.684;2024-02-23T03:35:44;16.33;;;9.88;;
22752;SDS011;11543;43.144;24.684;2024-02-23T03:38:10;16.80;;;10.00;;
22752;SDS011;11543;43.144;24.684;2024-02-23T03:40:35;23.55;;;12.02;;
22752;SDS011;11543;43.144;24.684;2024-02-23T03:43:01;21.67;;;12.35;;
22752;SDS011;11543;43.144;24.684;2024-02-23T03:45:27;22.20;;;11.95;;
22752;SDS011;11543;43.144;24.684;2024-02-23T03:47:53;18.80;;;11.50;;
22752;SDS011;11543;43.144;24.684;2024-02-23T03:50:18;21.33;;;11.85;;
22752;SDS011;11543;43.144;24.684;2024-02-23T03:52:44;19.20;;;11.27;;
22752;SDS011;11543;43.144;24.684;2024-02-23T03:55:09;15.77;;;9.70;;
22752;SDS011;11543;43.144;24.684;2024-02-23T03:57:35;15.25;;;9.52;;
22752;SDS011;11543;43.144;24.684;2024-02-23T04:00:01;15.27;;;9.05;;
22752;SDS011;11543;43.144;24.684;2024-02-23T04:02:27;13.15;;;8.60;;
22752;SDS011;11543;43.144;24.684;2024-02-23T04:04:53;13.77;;;9.13;;
22752;SDS011;11543;43.144;24.684;2024-02-23T04:07:19;12.23;;;7.95;;
22752;SDS011;11543;43.144;24.684;2024-02-23T04:09:44;11.43;;;7.47;;
22752;SDS011;11543;43.144;24.684;2024-02-23T04:12:10;10.02;;;6.30;;
22752;SDS011;11543;43.144;24.684;2024-02-23T04:14:35;10.75;;;6.90;;
22752;SDS011;11543;43.144;24.684;2024-02-23T04:17:04;11.00;;;6.93;;
22752;SDS011;11543;43.144;24.684;2024-02-23T04:19:30;9.13;;;6.50;;
22752;SDS011;11543;43.144;24.684;2024-02-23T04:21:55;9.50;;;6.68;;
22752;SDS011;11543;43.144;24.684;2024-02-23T04:24:21;14.40;;;9.00;;
22752;SDS011;11543;43.144;24.684;2024-02-23T04:26:47;15.23;;;9.57;;
22752;SDS011;11543;43.144;24.684;2024-02-23T04:29:12;15.77;;;10.52;;
22752;SDS011;11543;43.144;24.684;2024-02-23T04:31:38;14.18;;;9.90;;
22752;SDS011;11543;43.144;24.684;2024-02-23T04:34:03;18.17;;;12.05;;
22752;SDS011;11543;43.144;24.684;2024-02-23T04:36:29;17.63;;;11.77;;
22752;SDS011;11543;43.144;24.684;2024-02-23T04:38:54;16.05;;;10.82;;
22752;SDS011;11543;43.144;24.684;2024-02-23T04:41:20;15.73;;;10.93;;
22752;SDS011;11543;43.144;24.684;2024-02-23T04:43:49;15.07;;;9.43;;
22752;SDS011;11543;43.144;24.684;2024-02-23T04:46:15;13.32;;;8.82;;
22752;SDS011;11543;43.144;24.684;2024-02-23T04:48:41;18.70;;;11.10;;
22752;SDS011;11543;43.144;24.684;2024-02-23T04:51:06;18.95;;;12.25;;
22752;SDS011;11543;43.144;24.684;2024-02-23T04:53:37;20.02;;;11.00;;
22752;SDS011;11543;43.144;24.684;2024-02-23T04:56:03;14.30;;;9.77;;
22752;SDS011;11543;43.144;24.684;2024-02-23T04:58:29;13.55;;;9.30;;
22752;SDS011;11543;43.144;24.684;2024-02-23T05:00:55;14.02;;;8.18;;
22752;SDS011;11543;43.144;24.684;2024-02-23T05:03:20;10.88;;;7.43;;
22752;SDS011;11543;43.144;24.684;2024-02-23T05:05:46;11.80;;;7.40;;
22752;SDS011;11543;43.144;24.684;2024-02-23T05:08:11;9.98;;;6.35;;
22752;SDS011;11543;43.144;24.684;2024-02-23T05:10:37;8.98;;;6.10;;
22752;SDS011;11543;43.144;24.684;2024-02-23T05:13:02;10.88;;;6.45;;
22752;SDS011;11543;43.144;24.684;2024-02-23T05:15:28;8.75;;;6.28;;
22752;SDS011;11543;43.144;24.684;2024-02-23T05:17:53;10.32;;;6.65;;
22752;SDS011;11543;43.144;24.684;2024-02-23T05:20:19;16.45;;;9.85;;
22752;SDS011;11543;43.144;24.684;2024-02-23T05:22:44;13.05;;;8.65;;
22752;SDS011;11543;43.144;24.684;2024-02-23T05:25:10;13.52;;;9.38;;
22752;SDS011;11543;43.144;24.684;2024-02-23T05:27:35;12.95;;;7.95;;
22752;SDS011;11543;43.144;24.684;2024-02-23T05:30:00;11.45;;;7.00;;
22752;SDS011;11543;43.144;24.684;2024-02-23T05:32:26;10.73;;;6.88;;
22752;SDS011;11543;43.144;24.684;2024-02-23T05:34:51;11.13;;;6.82;;
22752;SDS011;11543;43.144;24.684;2024-02-23T05:37:19;18.35;;;10.80;;
22752;SDS011;11543;43.144;24.684;2024-02-23T05:39:44;20.45;;;12.10;;
22752;SDS011;11543;43.144;24.684;2024-02-23T05:42:11;24.75;;;12.82;;
22752;SDS011;11543;43.144;24.684;2024-02-23T05:44:38;23.27;;;13.73;;
22752;SDS011;11543;43.144;24.684;2024-02-23T05:47:04;29.73;;;14.18;;
22752;SDS011;11543;43.144;24.684;2024-02-23T05:49:30;29.40;;;17.30;;
22752;SDS011;11543;43.144;24.684;2024-02-23T05:51:55;34.63;;;21.77;;
22752;SDS011;11543;43.144;24.684;2024-02-23T05:54:21;41.53;;;24.17;;
22752;SDS011;11543;43.144;24.684;2024-02-23T05:56:46;39.03;;;22.75;;
22752;SDS011;11543;43.144;24.684;2024-02-23T05:59:12;41.28;;;23.92;;
22752;SDS011;11543;43.144;24.684;2024-02-23T06:01:39;41.83;;;23.88;;
22752;SDS011;11543;43.144;24.684;2024-02-23T06:04:04;37.00;;;21.05;;
22752;SDS011;11543;43.144;24.684;2024-02-23T06:06:30;33.72;;;20.30;;
22752;SDS011;11543;43.144;24.684;2024-02-23T06:08:56;37.45;;;20.75;;
22752;SDS011;11543;43.144;24.684;2024-02-23T06:11:21;26.88;;;14.95;;
22752;SDS011;11543;43.144;24.684;2024-02-23T06:13:48;30.65;;;16.75;;
22752;SDS011;11543;43.144;24.684;2024-02-23T06:16:14;24.38;;;13.32;;
22752;SDS011;11543;43.144;24.684;2024-02-23T06:18:39;21.95;;;13.20;;
22752;SDS011;11543;43.144;24.684;2024-02-23T06:21:15;23.08;;;13.13;;
22752;SDS011;11543;43.144;24.684;2024-02-23T06:23:42;16.42;;;9.93;;
22752;SDS011;11543;43.144;24.684;2024-02-23T06:26:10;18.13;;;11.40;;
22752;SDS011;11543;43.144;24.684;2024-02-23T06:28:36;22.83;;;11.95;;
22752;SDS011;11543;43.144;24.684;2024-02-23T06:31:06;24.20;;;12.40;;
22752;SDS011;11543;43.144;24.684;2024-02-23T06:33:32;25.10;;;13.15;;
22752;SDS011;11543;43.144;24.684;2024-02-23T06:35:58;27.58;;;14.07;;
22752;SDS011;11543;43.144;24.684;2024-02-23T06:38:23;45.20;;;22.92;;
22752;SDS011;11543;43.144;24.684;2024-02-23T06:40:49;48.50;;;23.98;;
22752;SDS011;11543;43.144;24.684;2024-02-23T06:43:15;41.10;;;21.08;;
22752;SDS011;11543;43.144;24.684;2024-02-23T06:45:41;33.25;;;18.77;;
22752;SDS011;11543;43.144;24.684;2024-02-23T06:48:06;37.90;;;19.50;;
22752;SDS011;11543;43.144;24.684;2024-02-23T06:50:32;29.00;;;16.75;;
22752;SDS011;11543;43.144;24.684;2024-02-23T06:52:58;34.80;;;17.60;;
22752;SDS011;11543;43.144;24.684;2024-02-23T06:55:23;66.10;;;23.33;;
22752;SDS011;11543;43.144;24.684;2024-02-23T06:57:49;32.97;;;18.05;;
22752;SDS011;11543;43.144;24.684;2024-02-23T07:00:14;194.73;;;29.58;;
22752;SDS011;11543;43.144;24.684;2024-02-23T07:02:41;88.45;;;20.33;;
22752;SDS011;11543;43.144;24.684;2024-02-23T07:05:06;82.30;;;22.58;;
22752;SDS011;11543;43.144;24.684;2024-02-23T07:07:33;56.80;;;19.75;;
22752;SDS011;11543;43.144;24.684;2024-02-23T07:09:59;57.60;;;23.02;;
22752;SDS011;11543;43.144;24.684;2024-02-23T07:12:25;71.63;;;34.67;;
22752;SDS011;11543;43.144;24.684;2024-02-23T07:14:54;57.17;;;33.13;;
22752;SDS011;11543;43.144;24.684;2024-02-23T07:17:20;86.93;;;52.08;;
22752;SDS011;11543;43.144;24.684;2024-02-23T07:19:46;94.78;;;55.92;;
22752;SDS011;11543;43.144;24.684;2024-02-23T07:22:12;43.25;;;25.23;;
22752;SDS011;11543;43.144;24.684;2024-02-23T07:24:41;48.88;;;29.20;;
22752;SDS011;11543;43.144;24.684;2024-02-23T07:27:09;47.45;;;26.13;;
22752;SDS011;11543;43.144;24.684;2024-02-23T07:29:35;27.50;;;14.38;;
22752;SDS011;11543;43.144;24.684;2024-02-23T07:32:00;28.67;;;15.07;;
22752;SDS011;11543;43.144;24.684;2024-02-23T07:34:26;31.30;;;15.38;;
22752;SDS011;11543;43.144;24.684;2024-02-23T07:36:52;32.67;;;14.68;;
22752;SDS011;11543;43.144;24.684;2024-02-23T07:39:18;20.27;;;11.02;;
22752;SDS011;11543;43.144;24.684;2024-02-23T07:41:44;29.67;;;13.05;;
22752;SDS011;11543;43.144;24.684;2024-02-23T07:44:10;37.05;;;12.77;;
22752;SDS011;11543;43.144;24.684;2024-02-23T07:46:35;24.48;;;12.73;;
22752;SDS011;11543;43.144;24.684;2024-02-23T07:49:02;18.60;;;10.50;;
22752;SDS011;11543;43.144;24.684;2024-02-23T07:51:27;19.70;;;10.20;;
22752;SDS011;11543;43.144;24.684;2024-02-23T07:53:53;15.55;;;10.05;;
22752;SDS011;11543;43.144;24.684;2024-02-23T07:56:19;17.60;;;9.70;;
22752;SDS011;11543;43.144;24.684;2024-02-23T07:58:44;18.08;;;9.43;;
22752;SDS011;11543;43.144;24.684;2024-02-23T08:01:10;16.83;;;9.60;;
22752;SDS011;11543;43.144;24.684;2024-02-23T08:03:36;22.02;;;9.32;;
22752;SDS011;11543;43.144;24.684;2024-02-23T08:06:01;20.42;;;10.00;;
22752;SDS011;11543;43.144;24.684;2024-02-23T08:08:27;20.20;;;9.48;;
22752;SDS011;11543;43.144;24.684;2024-02-23T08:10:53;19.50;;;9.13;;
22752;SDS011;11543;43.144;24.684;2024-02-23T08:13:18;14.65;;;8.60;;
22752;SDS011;11543;43.144;24.684;2024-02-23T08:15:44;20.17;;;8.30;;
22752;SDS011;11543;43.144;24.684;2024-02-23T08:18:09;14.02;;;8.30;;
22752;SDS011;11543;43.144;24.684;2024-02-23T08:20:35;16.33;;;7.95;;
22752;SDS011;11543;43.144;24.684;2024-02-23T08:23:01;20.38;;;8.15;;
22752;SDS011;11543;43.144;24.684;2024-02-23T08:25:27;11.38;;;7.45;;
22752;SDS011;11543;43.144;24.684;2024-02-23T08:27:56;12.90;;;7.07;;
22752;SDS011;11543;43.144;24.684;2024-02-23T08:30:22;13.35;;;7.03;;
22752;SDS011;11543;43.144;24.684;2024-02-23T08:32:47;11.25;;;6.97;;
22752;SDS011;11543;43.144;24.684;2024-02-23T08:35:14;9.70;;;6.43;;
22752;SDS011;11543;43.144;24.684;2024-02-23T08:37:40;12.45;;;6.38;;
22752;SDS011;11543;43.144;24.684;2024-02-23T08:40:07;11.77;;;6.20;;
22752;SDS011;11543;43.144;24.684;2024-02-23T08:42:33;10.70;;;7.10;;
22752;SDS011;11543;43.144;24.684;2024-02-23T08:44:59;18.77;;;11.35;;
22752;SDS011;11543;43.144;24.684;2024-02-23T08:47:24;14.55;;;7.25;;
22752;SDS011;11543;43.144;24.684;2024-02-23T08:49:53;8.48;;;5.97;;
22752;SDS011;11543;43.144;24.684;2024-02-23T08:52:18;14.65;;;8.80;;
22752;SDS011;11543;43.144;24.684;2024-02-23T08:54:44;11.02;;;7.22;;
22752;SDS011;11543;43.144;24.684;2024-02-23T08:57:09;5.75;;;4.03;;
22752;SDS011;11543;43.144;24.684;2024-02-23T08:59:35;4.45;;;2.72;;
22752;SDS011;11543;43.144;24.684;2024-02-23T09:02:00;2.53;;;2.03;;
22752;SDS011;11543;43.144;24.684;2024-02-23T09:04:26;3.15;;;1.70;;
22752;SDS011;11543;43.144;24.684;2024-02-23T09:06:52;2.45;;;1.85;;
22752;SDS011;11543;43.144;24.684;2024-02-23T09:09:18;3.25;;;1.95;;
22752;SDS011;11543;43.144;24.684;2024-02-23T09:11:43;3.47;;;2.28;;
22752;SDS011;11543;43.144;24.684;2024-02-23T09:14:09;3.85;;;2.33;;
22752;SDS011;11543;43.144;24.684;2024-02-23T09:16:34;3.03;;;1.80;;
22752;SDS011;11543;43.144;24.684;2024-02-23T09:19:00;3.38;;;2.15;;
22752;SDS011;11543;43.144;24.684;2024-02-23T09:21:25;2.13;;;1.38;;
22752;SDS011;11543;43.144;24.684;2024-02-23T09:23:51;2.20;;;1.50;;
22752;SDS011;11543;43.144;24.684;2024-02-23T09:26:16;2.00;;;1.55;;
22752;SDS011;11543;43.144;24.684;2024-02-23T09:28:43;2.53;;;1.48;;
22752;SDS011;11543;43.144;24.684;2024-02-23T09:31:10;2.55;;;1.52;;
22752;SDS011;11543;43.144;24.684;2024-02-23T09:33:36;1.88;;;1.30;;
22752;SDS011;11543;43.144;24.684;2024-02-23T09:36:02;2.47;;;1.60;;
22752;SDS011;11543;43.144;24.684;2024-02-23T09:38:27;2.15;;;1.55;;
22752;SDS011;11543;43.144;24.684;2024-02-23T09:40:53;2.17;;;1.50;;
22752;SDS011;11543;43.144;24.684;2024-02-23T09:43:20;2.88;;;1.70;;
22752;SDS011;11543;43.144;24.684;2024-02-23T09:45:50;2.88;;;1.70;;
22752;SDS011;11543;43.144;24.684;2024-02-23T09:48:16;3.58;;;1.60;;
22752;SDS011;11543;43.144;24.684;2024-02-23T09:50:44;2.53;;;1.60;;
22752;SDS011;11543;43.144;24.684;2024-02-23T09:53:11;2.45;;;1.70;;
22752;SDS011;11543;43.144;24.684;2024-02-23T09:55:39;2.75;;;1.75;;
22752;SDS011;11543;43.144;24.684;2024-02-23T09:58:04;3.17;;;1.52;;
22752;SDS011;11543;43.144;24.684;2024-02-23T10:00:33;3.35;;;1.80;;
22752;SDS011;11543;43.144;24.684;2024-02-23T10:03:02;2.40;;;1.88;;
22752;SDS011;11543;43.144;24.684;2024-02-23T10:05:29;1.52;;;1.20;;
22752;SDS011;11543;43.144;24.684;2024-02-23T10:07:58;3.78;;;1.60;;
22752;SDS011;11543;43.144;24.684;2024-02-23T10:10:33;2.38;;;1.50;;
22752;SDS011;11543;43.144;24.684;2024-02-23T10:12:59;2.38;;;1.60;;
22752;SDS011;11543;43.144;24.684;2024-02-23T10:15:26;3.55;;;1.50;;
22752;SDS011;11543;43.144;24.684;2024-02-23T10:17:54;1.70;;;1.10;;
22752;SDS011;11543;43.144;24.684;2024-02-23T10:20:19;1.67;;;1.23;;
22752;SDS011;11543;43.144;24.684;2024-02-23T10:22:45;1.30;;;1.05;;
22752;SDS011;11543;43.144;24.684;2024-02-23T10:25:11;3.95;;;1.20;;
22752;SDS011;11543;43.144;24.684;2024-02-23T10:27:37;2.67;;;1.10;;
22752;SDS011;11543;43.144;24.684;2024-02-23T10:30:02;1.67;;;1.05;;
22752;SDS011;11543;43.144;24.684;2024-02-23T10:32:29;2.30;;;1.33;;
22752;SDS011;11543;43.144;24.684;2024-02-23T10:34:55;1.80;;;1.10;;
22752;SDS011;11543;43.144;24.684;2024-02-23T10:37:29;1.60;;;1.30;;
22752;SDS011;11543;43.144;24.684;2024-02-23T10:39:56;2.20;;;1.25;;
22752;SDS011;11543;43.144;24.684;2024-02-23T10:42:23;2.08;;;1.30;;
22752;SDS011;11543;43.144;24.684;2024-02-23T10:44:50;2.03;;;1.45;;
22752;SDS011;11543;43.144;24.684;2024-02-23T10:47:16;1.33;;;1.10;;
22752;SDS011;11543;43.144;24.684;2024-02-23T10:49:42;2.53;;;1.45;;
22752;SDS011;11543;43.144;24.684;2024-02-23T10:52:10;4.07;;;1.10;;
22752;SDS011;11543;43.144;24.684;2024-02-23T10:54:38;2.83;;;1.30;;
22752;SDS011;11543;43.144;24.684;2024-02-23T10:57:05;2.58;;;1.25;;
22752;SDS011;11543;43.144;24.684;2024-02-23T10:59:31;1.50;;;1.02;;
22752;SDS011;11543;43.144;24.684;2024-02-23T11:01:57;1.45;;;1.10;;
22752;SDS011;11543;43.144;24.684;2024-02-23T11:04:25;1.42;;;1.08;;
22752;SDS011;11543;43.144;24.684;2024-02-23T11:06:52;2.03;;;1.30;;
22752;SDS011;11543;43.144;24.684;2024-02-23T11:09:23;1.88;;;1.08;;
22752;SDS011;11543;43.144;24.684;2024-02-23T11:11:56;1.77;;;1.30;;
22752;SDS011;11543;43.144;24.684;2024-02-23T11:17:00;1.40;;;1.08;;
22752;SDS011;11543;43.144;24.684;2024-02-23T11:19:36;1.55;;;1.10;;
22752;SDS011;11543;43.144;24.684;2024-02-23T11:22:03;1.48;;;1.05;;
22752;SDS011;11543;43.144;24.684;2024-02-23T11:24:29;1.88;;;1.05;;
22752;SDS011;11543;43.144;24.684;2024-02-23T11:26:56;1.42;;;1.10;;
22752;SDS011;11543;43.144;24.684;2024-02-23T11:29:31;1.25;;;1.08;;
22752;SDS011;11543;43.144;24.684;2024-02-23T11:31:57;1.52;;;1.17;;
22752;SDS011;11543;43.144;24.684;2024-02-23T11:34:26;4.53;;;1.27;;
22752;SDS011;11543;43.144;24.684;2024-02-23T11:36:53;1.42;;;1.10;;
22752;SDS011;11543;43.144;24.684;2024-02-23T11:39:19;1.25;;;0.93;;
22752;SDS011;11543;43.144;24.684;2024-02-23T11:41:47;2.58;;;1.17;;
22752;SDS011;11543;43.144;24.684;2024-02-23T11:44:14;2.72;;;1.80;;
22752;SDS011;11543;43.144;24.684;2024-02-23T11:46:39;2.00;;;1.70;;
22752;SDS011;11543;43.144;24.684;2024-02-23T11:49:06;2.83;;;1.65;;
22752;SDS011;11543;43.144;24.684;2024-02-23T11:51:31;1.85;;;1.60;;
22752;SDS011;11543;43.144;24.684;2024-02-23T11:53:57;2.30;;;1.67;;
22752;SDS011;11543;43.144;24.684;2024-02-23T11:56:23;2.22;;;1.70;;
22752;SDS011;11543;43.144;24.684;2024-02-23T11:58:48;3.95;;;2.53;;
22752;SDS011;11543;43.144;24.684;2024-02-23T12:01:14;3.00;;;2.50;;
22752;SDS011;11543;43.144;24.684;2024-02-23T12:03:40;3.60;;;1.95;;
22752;SDS011;11543;43.144;24.684;2024-02-23T12:06:07;2.65;;;1.70;;
22752;SDS011;11543;43.144;24.684;2024-02-23T12:08:33;1.98;;;1.50;;
22752;SDS011;11543;43.144;24.684;2024-02-23T12:13:34;2.92;;;2.10;;
22752;SDS011;11543;43.144;24.684;2024-02-23T12:16:01;2.50;;;1.77;;
22752;SDS011;11543;43.144;24.684;2024-02-23T12:18:27;4.38;;;2.30;;
22752;SDS011;11543;43.144;24.684;2024-02-23T12:23:44;4.03;;;2.05;;
22752;SDS011;11543;43.144;24.684;2024-02-23T12:26:12;2.25;;;1.40;;
22752;SDS011;11543;43.144;24.684;2024-02-23T12:28:38;2.83;;;1.88;;
22752;SDS011;11543;43.144;24.684;2024-02-23T12:31:05;4.15;;;1.80;;
22752;SDS011;11543;43.144;24.684;2024-02-23T12:33:31;3.55;;;2.00;;
22752;SDS011;11543;43.144;24.684;2024-02-23T12:36:01;3.05;;;2.13;;
22752;SDS011;11543;43.144;24.684;2024-02-23T12:38:28;3.85;;;2.10;;
22752;SDS011;11543;43.144;24.684;2024-02-23T12:40:54;5.75;;;2.00;;
22752;SDS011;11543;43.144;24.684;2024-02-23T12:43:20;2.42;;;1.65;;
22752;SDS011;11543;43.144;24.684;2024-02-23T12:45:55;2.50;;;1.60;;
22752;SDS011;11543;43.144;24.684;2024-02-23T12:48:22;2.50;;;1.95;;
22752;SDS011;11543;43.144;24.684;2024-02-23T12:50:48;2.72;;;1.80;;
22752;SDS011;11543;43.144;24.684;2024-02-23T12:53:30;2.53;;;1.50;;
22752;SDS011;11543;43.144;24.684;2024-02-23T12:56:03;1.95;;;1.20;;
22752;SDS011;11543;43.144;24.684;2024-02-23T12:58:33;2.47;;;1.23;;
22752;SDS011;11543;43.144;24.684;2024-02-23T13:01:10;1.50;;;1.23;;
22752;SDS011;11543;43.144;24.684;2024-02-23T13:03:37;4.78;;;1.80;;
22752;SDS011;11543;43.144;24.684;2024-02-23T13:06:03;4.85;;;1.58;;
22752;SDS011;11543;43.144;24.684;2024-02-23T13:08:30;2.53;;;1.67;;
22752;SDS011;11543;43.144;24.684;2024-02-23T13:10:56;2.20;;;1.52;;
22752;SDS011;11543;43.144;24.684;2024-02-23T13:13:22;3.30;;;1.42;;
22752;SDS011;11543;43.144;24.684;2024-02-23T13:15:48;2.72;;;1.85;;
22752;SDS011;11543;43.144;24.684;2024-02-23T13:18:14;2.60;;;1.77;;
22752;SDS011;11543;43.144;24.684;2024-02-23T13:20:40;3.60;;;1.75;;
22752;SDS011;11543;43.144;24.684;2024-02-23T13:23:09;2.88;;;1.98;;
22752;SDS011;11543;43.144;24.684;2024-02-23T13:25:37;2.35;;;1.52;;
22752;SDS011;11543;43.144;24.684;2024-02-23T13:28:03;4.88;;;1.75;;
22752;SDS011;11543;43.144;24.684;2024-02-23T13:30:32;2.08;;;1.77;;
22752;SDS011;11543;43.144;24.684;2024-02-23T13:32:58;3.75;;;1.73;;
22752;SDS011;11543;43.144;24.684;2024-02-23T13:35:24;2.58;;;1.67;;
22752;SDS011;11543;43.144;24.684;2024-02-23T13:37:50;2.47;;;1.65;;
22752;SDS011;11543;43.144;24.684;2024-02-23T13:40:15;2.80;;;1.90;;
22752;SDS011;11543;43.144;24.684;2024-02-23T13:42:41;3.28;;;1.70;;
22752;SDS011;11543;43.144;24.684;2024-02-23T13:45:07;3.58;;;2.00;;
22752;SDS011;11543;43.144;24.684;2024-02-23T13:47:36;2.85;;;1.60;;
22752;SDS011;11543;43.144;24.684;2024-02-23T13:50:02;2.20;;;1.55;;
22752;SDS011;11543;43.144;24.684;2024-02-23T13:52:28;2.28;;;1.70;;
22752;SDS011;11543;43.144;24.684;2024-02-23T13:54:54;3.72;;;1.85;;
22752;SDS011;11543;43.144;24.684;2024-02-23T13:57:19;3.42;;;2.15;;
22752;SDS011;11543;43.144;24.684;2024-02-23T13:59:57;3.03;;;1.70;;
22752;SDS011;11543;43.144;24.684;2024-02-23T14:02:28;2.58;;;1.55;;
22752;SDS011;11543;43.144;24.684;2024-02-23T14:05:00;3.30;;;1.83;;
22752;SDS011;11543;43.144;24.684;2024-02-23T14:07:29;2.08;;;1.63;;
22752;SDS011;11543;43.144;24.684;2024-02-23T14:09:55;2.70;;;2.10;;
22752;SDS011;11543;43.144;24.684;2024-02-23T14:12:20;5.72;;;1.60;;
22752;SDS011;11543;43.144;24.684;2024-02-23T14:14:46;2.88;;;1.70;;
22752;SDS011;11543;43.144;24.684;2024-02-23T14:17:11;4.03;;;1.58;;
22752;SDS011;11543;43.144;24.684;2024-02-23T14:19:37;2.38;;;1.70;;
22752;SDS011;11543;43.144;24.684;2024-02-23T14:22:02;2.40;;;1.73;;
22752;SDS011;11543;43.144;24.684;2024-02-23T14:24:28;2.75;;;1.73;;
22752;SDS011;11543;43.144;24.684;2024-02-23T14:26:53;2.53;;;1.58;;